Time;durP1;ratioP1;P1;durP2;ratioP2;P2;SDS_P1;SDS_P2;PMS_P1;PMS_P2;Temp;Humidity;BMP_temperature;BMP_pressure;BME280_temperature;BME280_humidity;BME280_pressure;Samples;Min_cycle;Max_cycle;Signal;HPM_P1;HPM_P2
2023/02/06 00:01:30;;;;;;;10.30;6.70;;;;;;;1.73;53.97;97563.94;5072138;28;20092;-64
2023/02/06 00:03:56;;;;;;;13.63;8.88;;;;;;;1.34;57.15;97557.00;5077982;28;20086;-65
2023/02/06 00:06:21;;;;;;;15.77;9.00;;;;;;;1.80;54.39;97559.22;5068660;28;20060;-65
2023/02/06 00:08:46;;;;;;;13.23;9.65;;;;;;;2.35;54.32;97549.50;5063885;28;20069;-65
2023/02/06 00:11:15;;;;;;;12.68;8.40;;;;;;;2.30;52.52;97551.53;5069389;28;20503;-64
2023/02/06 00:13:40;;;;;;;11.32;7.70;;;;;;;2.37;51.03;97547.69;5069761;28;20191;-64
2023/02/06 00:16:17;;;;;;;5.47;3.83;;;;;;;1.67;52.92;97558.13;5068630;28;20086;-65
2023/02/06 00:18:42;;;;;;;12.68;7.97;;;;;;;1.43;55.37;97553.09;5070973;28;20435;-65
2023/02/06 00:21:08;;;;;;;12.07;5.82;;;;;;;2.00;52.89;97545.13;5075579;28;20307;-64
2023/02/06 00:23:33;;;;;;;9.18;5.75;;;;;;;-0.09;56.09;97564.06;5068834;28;20506;-65
2023/02/06 00:25:58;;;;;;;15.10;9.38;;;;;;;1.49;55.56;97553.66;5069665;28;20433;-65
2023/02/06 00:28:24;;;;;;;8.23;4.80;;;;;;;1.56;54.03;97545.50;5073094;28;20116;-65
2023/02/06 00:30:49;;;;;;;6.15;3.67;;;;;;;1.43;52.96;97548.69;5068087;28;20047;-65
2023/02/06 00:33:15;;;;;;;5.53;3.78;;;;;;;2.03;54.04;97530.97;5065114;28;20101;-65
2023/02/06 00:35:40;;;;;;;9.05;6.13;;;;;;;1.94;52.41;97541.97;5070458;28;20063;-64
2023/02/06 00:38:05;;;;;;;11.02;6.20;;;;;;;1.80;51.87;97543.47;5068270;28;20627;-64
2023/02/06 00:40:31;;;;;;;8.13;4.45;;;;;;;1.80;50.63;97540.84;5075917;28;20343;-64
2023/02/06 00:42:56;;;;;;;21.92;14.05;;;;;;;1.91;54.85;97531.59;5068198;28;20705;-65
2023/02/06 00:45:22;;;;;;;11.15;7.55;;;;;;;2.00;51.20;97533.75;5072032;28;20091;-65
2023/02/06 00:47:47;;;;;;;18.40;11.68;;;;;;;1.97;52.50;97540.00;5068442;28;20454;-64
2023/02/06 00:50:12;;;;;;;9.75;6.10;;;;;;;2.10;50.77;97540.25;5067852;28;20061;-65
2023/02/06 00:52:38;;;;;;;14.25;9.02;;;;;;;1.97;53.77;97540.00;5067834;28;20488;-65
2023/02/06 00:55:04;;;;;;;8.65;5.78;;;;;;;1.69;51.29;97544.00;5071395;28;20043;-65
2023/02/06 00:57:29;;;;;;;22.85;13.65;;;;;;;1.88;54.55;97551.81;5064014;28;20540;-64
2023/02/06 00:59:55;;;;;;;11.52;7.63;;;;;;;2.01;53.85;97551.25;5067003;28;20138;-64
2023/02/06 01:02:20;;;;;;;20.25;12.55;;;;;;;2.07;54.97;97544.81;5070447;28;20048;-65
2023/02/06 01:04:45;;;;;;;7.25;4.20;;;;;;;2.06;51.06;97538.72;5069558;28;20606;-64
2023/02/06 01:07:11;;;;;;;18.80;12.10;;;;;;;2.20;53.85;97542.41;5077027;28;20054;-65
2023/02/06 01:09:36;;;;;;;14.30;9.85;;;;;;;2.06;50.45;97551.84;5071710;28;20438;-64
2023/02/06 01:12:02;;;;;;;5.95;3.45;;;;;;;1.85;50.09;97545.88;5068576;28;20397;-65
2023/02/06 01:14:27;;;;;;;13.45;8.60;;;;;;;2.05;53.13;97541.41;5067762;28;20053;-64
2023/02/06 01:16:52;;;;;;;12.32;7.60;;;;;;;1.90;50.25;97553.53;5068845;28;20072;-65
2023/02/06 01:19:18;;;;;;;14.70;9.98;;;;;;;1.95;55.73;97549.75;5069576;28;20061;-65
2023/02/06 01:21:43;;;;;;;20.60;13.73;;;;;;;1.92;53.16;97542.03;5064503;28;20091;-65
2023/02/06 01:24:08;;;;;;;25.75;15.95;;;;;;;2.10;55.92;97550.78;5074093;28;20462;-65
2023/02/06 01:26:34;;;;;;;14.85;10.23;;;;;;;1.78;56.46;97555.84;5073993;28;20530;-64
2023/02/06 01:29:00;;;;;;;24.13;14.73;;;;;;;1.98;55.78;97554.84;5069918;28;20077;-65
2023/02/06 01:31:27;;;;;;;6.88;3.85;;;;;;;1.84;51.36;97539.75;5065149;28;20039;-65
2023/02/06 01:33:53;;;;;;;7.07;4.57;;;;;;;1.91;50.59;97540.34;5070925;28;20537;-65
2023/02/06 01:36:19;;;;;;;9.65;5.93;;;;;;;1.87;51.13;97544.88;5072906;28;20069;-65
2023/02/06 01:38:45;;;;;;;18.73;12.32;;;;;;;2.16;54.73;97548.75;5069078;28;20060;-64
2023/02/06 01:41:11;;;;;;;7.50;4.38;;;;;;;1.79;51.12;97546.16;5067536;28;20145;-65
2023/02/06 01:43:38;;;;;;;14.18;7.82;;;;;;;1.58;52.94;97549.78;5064395;28;20096;-65
2023/02/06 01:46:04;;;;;;;15.75;9.90;;;;;;;0.81;55.23;97552.38;5068596;28;20048;-65
2023/02/06 01:48:36;;;;;;;13.32;7.75;;;;;;;1.10;51.66;97542.31;5069080;28;20664;-64
2023/02/06 01:51:02;;;;;;;13.52;8.90;;;;;;;1.15;53.49;97551.75;5068981;28;20499;-65
2023/02/06 01:53:28;;;;;;;11.48;6.70;;;;;;;-0.01;55.53;97553.25;5071725;28;20119;-65
2023/02/06 01:55:53;;;;;;;17.85;10.70;;;;;;;0.86;54.86;97560.03;5066249;28;20033;-64
2023/02/06 01:58:23;;;;;;;23.05;13.98;;;;;;;1.04;56.30;97565.38;5069441;28;20380;-64
2023/02/06 02:00:48;;;;;;;14.07;7.90;;;;;;;0.97;53.20;97564.78;5046204;28;20079;-66
2023/02/06 02:03:14;;;;;;;18.33;12.80;;;;;;;1.07;56.70;97558.22;5074973;28;20064;-66
2023/02/06 02:05:39;;;;;;;12.60;7.03;;;;;;;1.07;55.99;97558.22;5068576;28;20443;-66
2023/02/06 02:08:08;;;;;;;20.10;13.55;;;;;;;0.76;57.59;97559.59;5069776;28;20131;-66
2023/02/06 02:10:33;;;;;;;9.77;5.53;;;;;;;-0.32;57.52;97558.84;5051563;28;20055;-66
2023/02/06 02:12:58;;;;;;;22.13;12.00;;;;;;;0.42;58.67;97555.84;5066576;28;20609;-66
2023/02/06 02:15:38;;;;;;;11.02;6.80;;;;;;;-0.05;57.23;97552.53;5068609;28;20516;-66
2023/02/06 02:18:45;;;;;;;11.25;7.10;;;;;;;0.40;54.53;97557.66;5066390;28;20079;-66
2023/02/06 02:21:10;;;;;;;17.88;10.57;;;;;;;0.36;58.56;97549.09;5032337;28;20082;-66
2023/02/06 02:23:46;;;;;;;8.23;5.03;;;;;;;0.38;55.32;97546.41;5064985;28;20337;-66
2023/02/06 02:26:29;;;;;;;13.57;8.35;;;;;;;-0.17;56.73;97551.25;5048333;28;20358;-66
2023/02/06 02:29:34;;;;;;;19.58;11.63;;;;;;;-0.24;56.16;97547.22;5067476;28;20068;-66
2023/02/06 02:32:02;;;;;;;14.70;8.60;;;;;;;-0.79;61.22;97543.22;5066072;28;20082;-66
2023/02/06 02:34:31;;;;;;;9.43;5.88;;;;;;;-0.44;60.02;97539.22;5063189;28;20048;-66
2023/02/06 02:36:59;;;;;;;;;;;;;;;-1.91;59.82;97542.81;5067609;28;20087;-66
2023/02/06 02:39:43;;;;;;;14.35;7.80;;;;;;;-0.82;56.56;97539.81;5061354;28;20261;-66
2023/02/06 02:42:19;;;;;;;16.25;10.07;;;;;;;-0.45;61.10;97542.75;5063998;28;20872;-65
2023/02/06 02:44:51;;;;;;;17.20;10.80;;;;;;;0.09;61.86;97541.47;5060378;28;20299;-66
2023/02/06 02:47:18;;;;;;;12.93;7.47;;;;;;;0.01;59.75;97541.81;5056731;28;20073;-66
2023/02/06 02:49:44;;;;;;;16.60;11.43;;;;;;;0.30;57.63;97541.47;5060140;28;20089;-66
2023/02/06 02:52:10;;;;;;;16.67;10.23;;;;;;;0.08;59.92;97545.03;5067159;28;20101;-66
2023/02/06 02:54:35;;;;;;;13.30;7.55;;;;;;;-0.26;56.64;97533.31;5072980;28;20064;-66
2023/02/06 02:57:21;;;;;;;17.60;11.07;;;;;;;-0.14;59.78;97534.59;5063980;28;20097;-66
2023/02/06 02:59:46;;;;;;;15.38;9.30;;;;;;;0.08;61.14;97539.78;5067187;28;20423;-66
2023/02/06 03:02:17;;;;;;;11.20;6.38;;;;;;;-0.20;52.31;97536.53;5069074;28;20389;-66
2023/02/06 03:04:48;;;;;;;16.42;9.63;;;;;;;0.02;59.57;97524.31;5070632;28;20606;-66
2023/02/06 03:07:33;;;;;;;17.13;10.48;;;;;;;-0.04;61.68;97530.66;5068169;28;20509;-66
2023/02/06 03:10:19;;;;;;;12.90;7.93;;;;;;;-0.01;55.33;97540.16;5061177;28;20078;-67
2023/02/06 03:13:05;;;;;;;8.57;4.60;;;;;;;-0.47;55.12;97539.34;5066146;28;20073;-66
2023/02/06 03:15:52;;;;;;;12.00;7.18;;;;;;;-0.40;58.86;97549.59;5053730;28;20331;-66
2023/02/06 03:18:19;;;;;;;7.40;4.40;;;;;;;-0.85;55.48;97539.06;5065611;28;20086;-66
2023/02/06 03:20:45;;;;;;;12.60;7.25;;;;;;;-0.26;59.53;97542.03;5047620;28;20559;-66
2023/02/06 03:23:12;;;;;;;14.73;9.13;;;;;;;-0.00;61.14;97541.88;5047620;28;20132;-66
2023/02/06 03:25:38;;;;;;;15.98;10.32;;;;;;;0.24;60.55;97532.09;5051430;28;20466;-66
2023/02/06 03:28:04;;;;;;;21.00;12.98;;;;;;;0.34;61.06;97532.56;5061263;28;20120;-66
2023/02/06 03:30:30;;;;;;;11.95;7.13;;;;;;;-0.15;59.48;97535.47;5051463;28;20477;-66
2023/02/06 03:32:59;;;;;;;7.53;4.10;;;;;;;0.03;55.34;97541.72;5070124;28;20091;-66
2023/02/06 03:35:28;;;;;;;11.60;5.60;;;;;;;-0.51;55.47;97548.22;5066630;28;20096;-66
2023/02/06 03:37:53;;;;;;;11.37;5.57;;;;;;;-0.14;51.72;97550.31;5063059;28;20104;-66
2023/02/06 03:40:19;;;;;;;10.55;6.13;;;;;;;-0.51;54.69;97555.25;5062114;28;20087;-66
2023/02/06 03:42:50;;;;;;;14.65;8.68;;;;;;;-0.39;61.47;97556.50;5059542;28;20632;-66
2023/02/06 03:45:21;;;;;;;16.67;10.27;;;;;;;-0.28;61.47;97574.41;5060657;28;20100;-66
2023/02/06 03:47:46;;;;;;;12.32;6.53;;;;;;;-0.37;58.07;97565.16;5067785;28;20499;-66
2023/02/06 03:50:12;;;;;;;14.52;9.95;;;;;;;-0.14;61.29;97573.88;5065867;28;20051;-66
2023/02/06 03:52:38;;;;;;;9.27;4.78;;;;;;;-0.73;53.95;97580.47;5070478;28;20704;-67
2023/02/06 03:55:08;;;;;;;15.63;9.60;;;;;;;-0.49;61.81;97575.22;5068694;28;20059;-67
2023/02/06 03:57:33;;;;;;;15.85;9.48;;;;;;;-0.29;62.10;97573.56;5054647;28;20119;-66
2023/02/06 03:59:58;;;;;;;11.40;5.15;;;;;;;-0.86;55.67;97579.22;5061074;28;20087;-66
2023/02/06 04:02:24;;;;;;;12.68;7.95;;;;;;;-0.81;61.51;97582.53;5074080;28;20489;-66
2023/02/06 04:04:50;;;;;;;8.82;5.13;;;;;;;-1.39;56.28;97578.50;5075683;28;20404;-66
2023/02/06 04:07:26;;;;;;;11.27;6.57;;;;;;;-1.03;57.69;97575.44;5075189;28;20235;-66
2023/02/06 04:09:51;;;;;;;12.77;6.85;;;;;;;-1.04;60.75;97570.28;5078146;28;20513;-66
2023/02/06 04:12:17;;;;;;;10.68;5.63;;;;;;;-2.07;56.02;97579.88;5076771;28;20866;-66
2023/02/06 04:14:42;;;;;;;8.63;4.68;;;;;;;-1.90;54.59;97570.66;5079022;28;20120;-66
2023/02/06 04:17:07;;;;;;;8.55;4.72;;;;;;;-1.94;60.06;97584.72;5078472;28;20079;-66
2023/02/06 04:19:33;;;;;;;12.20;5.90;;;;;;;-1.80;59.47;97582.47;5073963;28;20061;-66
2023/02/06 04:21:58;;;;;;;9.02;5.65;;;;;;;-1.69;58.41;97589.09;5076232;28;20093;-66
2023/02/06 04:24:24;;;;;;;7.18;4.25;;;;;;;-2.31;56.76;97594.56;5075574;28;20111;-66
2023/02/06 04:26:49;;;;;;;13.48;8.68;;;;;;;-1.99;64.56;97598.78;5077000;28;20775;-66
2023/02/06 04:29:15;;;;;;;13.55;8.27;;;;;;;-1.48;64.25;97593.59;5076944;28;20130;-66
2023/02/06 04:31:40;;;;;;;13.55;7.60;;;;;;;-1.37;63.18;97587.97;5078515;28;20060;-66
2023/02/06 04:34:06;;;;;;;14.02;8.32;;;;;;;-1.22;64.02;97581.34;5076312;28;20085;-66
2023/02/06 04:36:31;;;;;;;13.35;8.50;;;;;;;-1.12;63.31;97581.03;5078579;28;20476;-66
2023/02/06 04:38:56;;;;;;;12.07;6.82;;;;;;;-1.14;61.09;97585.44;5077429;28;20067;-66
2023/02/06 04:41:22;;;;;;;11.23;7.07;;;;;;;-0.91;60.71;97582.03;5078903;28;20155;-66
2023/02/06 04:43:47;;;;;;;14.27;9.20;;;;;;;-0.64;64.07;97573.19;5074919;28;20100;-67
2023/02/06 04:46:12;;;;;;;12.18;7.70;;;;;;;-0.64;61.33;97571.41;5071324;28;20065;-66
2023/02/06 04:48:38;;;;;;;13.82;7.63;;;;;;;-0.67;57.78;97568.94;5070054;28;20100;-66
2023/02/06 04:51:03;;;;;;;14.23;8.45;;;;;;;-0.65;61.77;97563.63;5066267;28;20075;-66
2023/02/06 04:53:29;;;;;;;10.23;6.35;;;;;;;-0.66;57.04;97568.00;5068631;28;20425;-66
2023/02/06 04:56:03;;;;;;;11.98;6.35;;;;;;;-1.48;54.54;97577.06;5068858;28;20491;-67
2023/02/06 04:58:29;;;;;;;10.00;6.53;;;;;;;-1.53;55.03;97574.59;5069198;28;20036;-66
2023/02/06 05:00:54;;;;;;;10.70;5.53;;;;;;;-1.73;64.05;97583.97;5065841;28;20553;-66
2023/02/06 05:03:22;;;;;;;10.35;6.10;;;;;;;-2.73;60.75;97588.88;5069681;28;20036;-66
2023/02/06 05:05:47;;;;;;;8.80;4.88;;;;;;;-2.34;61.16;97589.44;5066622;28;20125;-66
2023/02/06 05:08:13;;;;;;;8.63;5.75;;;;;;;-2.30;65.69;97597.16;5069986;28;20036;-65
2023/02/06 05:10:38;;;;;;;9.15;5.25;;;;;;;-1.81;63.36;97580.78;5070023;28;20381;-66
2023/02/06 05:13:03;;;;;;;8.73;5.43;;;;;;;-2.71;61.81;97584.47;5072748;28;20036;-66
2023/02/06 05:15:29;;;;;;;9.27;5.18;;;;;;;-2.21;58.48;97580.31;5062668;28;20388;-65
2023/02/06 05:17:54;;;;;;;10.07;6.25;;;;;;;-1.82;64.28;97579.06;5068073;28;20036;-66
2023/02/06 05:20:19;;;;;;;8.65;5.55;;;;;;;-1.93;57.19;97584.63;5070955;28;20469;-67
2023/02/06 05:22:45;;;;;;;9.57;4.70;;;;;;;-1.95;56.30;97576.00;5066332;28;20447;-66
2023/02/06 05:25:10;;;;;;;12.23;7.15;;;;;;;-1.47;63.78;97574.38;5070958;28;20044;-66
2023/02/06 05:27:36;;;;;;;11.57;5.45;;;;;;;-1.23;57.83;97565.72;5067616;28;20032;-65
2023/02/06 05:30:01;;;;;;;9.65;5.47;;;;;;;-1.00;61.61;97569.25;5067561;28;20493;-66
2023/02/06 05:32:26;;;;;;;9.98;6.13;;;;;;;-1.07;61.74;97568.63;5070117;28;20032;-66
2023/02/06 05:34:52;;;;;;;8.77;4.88;;;;;;;-1.58;60.41;97560.84;5070117;28;20117;-66
2023/02/06 05:37:17;;;;;;;10.43;5.07;;;;;;;-1.65;58.51;97564.56;5064698;28;20036;-66
2023/02/06 05:39:42;;;;;;;9.35;6.15;;;;;;;-1.44;64.18;97562.97;5069173;28;20230;-66
2023/02/06 05:42:08;;;;;;;10.40;6.88;;;;;;;-1.03;64.35;97558.91;5070848;28;20385;-66
2023/02/06 05:44:33;;;;;;;10.93;6.97;;;;;;;-0.80;63.48;97554.59;5073607;28;20236;-66
2023/02/06 05:46:59;;;;;;;12.90;6.82;;;;;;;-0.70;63.06;97550.72;5067501;28;20374;-66
2023/02/06 05:49:24;;;;;;;13.27;6.88;;;;;;;-0.61;63.52;97552.13;5072121;28;20516;-66
2023/02/06 05:51:49;;;;;;;10.95;6.45;;;;;;;-0.57;62.12;97548.50;5068084;28;20093;-66
2023/02/06 05:54:17;;;;;;;11.07;6.60;;;;;;;-0.56;62.86;97544.94;5065139;28;20339;-66
2023/02/06 05:56:43;;;;;;;9.38;5.78;;;;;;;-0.61;59.82;97554.75;5061749;28;20579;-66
2023/02/06 05:59:11;;;;;;;9.70;4.63;;;;;;;-0.80;58.02;97545.00;5065219;28;20055;-66
2023/02/06 06:01:36;;;;;;;11.52;5.90;;;;;;;-0.70;62.59;97548.94;5066907;28;20042;-66
2023/02/06 06:04:02;;;;;;;8.15;5.43;;;;;;;-0.68;60.21;97551.50;5069020;28;20144;-66
2023/02/06 06:06:27;;;;;;;9.15;5.90;;;;;;;-0.74;62.27;97549.97;5069027;28;20021;-66
2023/02/06 06:08:53;;;;;;;8.07;4.18;;;;;;;-0.79;60.00;97544.06;5070848;28;20048;-66
2023/02/06 06:11:18;;;;;;;9.45;5.68;;;;;;;-0.87;60.96;97552.22;5065328;28;20032;-66
2023/02/06 06:13:43;;;;;;;9.27;4.55;;;;;;;-0.86;60.22;97555.69;5062713;28;20052;-66
2023/02/06 06:16:09;;;;;;;9.43;4.97;;;;;;;-0.81;61.32;97553.75;5066157;28;20433;-66
2023/02/06 06:18:34;;;;;;;8.90;3.65;;;;;;;-1.43;57.47;97553.38;5070877;28;20063;-66
2023/02/06 06:21:00;;;;;;;10.32;4.78;;;;;;;-2.19;59.67;97569.81;5063239;28;20279;-66
2023/02/06 06:23:25;;;;;;;8.90;3.35;;;;;;;-3.02;56.35;97569.72;5061421;28;20025;-66
2023/02/06 06:25:50;;;;;;;8.55;5.03;;;;;;;-2.09;63.42;97568.63;5063237;28;20439;-65
2023/02/06 06:28:16;;;;;;;9.02;5.85;;;;;;;-1.40;65.12;97563.69;5065531;28;20047;-65
2023/02/06 06:30:41;;;;;;;8.20;4.35;;;;;;;-1.23;63.04;97555.25;5065963;28;20036;-66
2023/02/06 06:33:07;;;;;;;6.65;3.20;;;;;;;-1.15;55.29;97555.81;5063626;28;20115;-65
2023/02/06 06:35:32;;;;;;;10.30;5.47;;;;;;;-0.96;62.56;97549.94;5073736;28;20016;-66
2023/02/06 06:37:58;;;;;;;7.68;5.22;;;;;;;-0.85;62.55;97541.69;5069390;28;20113;-66
2023/02/06 06:40:23;;;;;;;9.45;5.70;;;;;;;-0.75;63.52;97545.66;5065976;28;20481;-66
2023/02/06 06:42:48;;;;;;;8.70;4.95;;;;;;;-0.70;62.42;97548.94;5070400;28;20040;-66
2023/02/06 06:45:14;;;;;;;6.13;3.95;;;;;;;-0.75;62.01;97544.84;5067648;28;20052;-66
2023/02/06 06:47:39;;;;;;;7.13;5.05;;;;;;;-0.71;58.36;97555.09;5070706;28;20276;-66
2023/02/06 06:50:05;;;;;;;9.40;5.20;;;;;;;-0.75;62.25;97552.69;5066245;28;20370;-66
2023/02/06 06:52:30;;;;;;;8.07;5.22;;;;;;;-0.77;62.51;97559.72;5069804;28;20031;-66
2023/02/06 06:54:56;;;;;;;8.25;4.40;;;;;;;-1.05;60.44;97566.78;5064168;28;20020;-66
2023/02/06 06:57:21;;;;;;;6.72;4.25;;;;;;;-0.93;61.43;97560.28;5066234;28;20432;-66
2023/02/06 06:59:46;;;;;;;6.97;3.72;;;;;;;-1.12;54.22;97562.72;5069483;28;20036;-66
2023/02/06 07:02:12;;;;;;;7.85;5.05;;;;;;;-0.97;62.39;97570.03;5071351;28;20170;-66
2023/02/06 07:04:38;;;;;;;5.97;3.65;;;;;;;-1.08;56.08;97566.94;5069641;28;20408;-66
2023/02/06 07:07:03;;;;;;;5.78;3.80;;;;;;;-1.17;55.86;97565.50;5067065;28;20047;-66
2023/02/06 07:09:28;;;;;;;8.65;4.70;;;;;;;-0.97;62.81;97569.13;5066383;28;20040;-66
2023/02/06 07:11:54;;;;;;;9.95;5.25;;;;;;;-0.85;62.10;97570.47;5071211;28;20039;-65
2023/02/06 07:14:19;;;;;;;6.82;4.50;;;;;;;-0.79;61.74;97572.00;5068874;28;20044;-66
2023/02/06 07:16:45;;;;;;;8.20;4.20;;;;;;;-1.31;54.92;97568.63;5067569;28;20042;-65
2023/02/06 07:19:10;;;;;;;8.38;4.05;;;;;;;-1.48;54.20;97569.22;5069406;28;20410;-66
2023/02/06 07:21:36;;;;;;;9.82;4.28;;;;;;;-2.13;55.46;97577.47;5066755;28;20481;-66
2023/02/06 07:24:02;;;;;;;6.90;3.70;;;;;;;-1.96;57.39;97578.66;5069984;28;20040;-66
2023/02/06 07:26:27;;;;;;;7.82;3.88;;;;;;;-2.39;56.43;97590.44;5065268;28;20051;-66
2023/02/06 07:28:52;;;;;;;6.40;3.83;;;;;;;-2.07;60.15;97587.69;5070058;28;20549;-66
2023/02/06 07:31:18;;;;;;;7.80;4.20;;;;;;;-2.11;63.77;97576.50;5062876;28;20122;-66
2023/02/06 07:33:43;;;;;;;8.88;4.28;;;;;;;-2.43;63.20;97587.97;5074183;28;20044;-65
2023/02/06 07:36:12;;;;;;;7.18;4.25;;;;;;;-3.02;58.44;97587.97;5069988;28;20047;-65
2023/02/06 07:38:38;;;;;;;;;;;;;;;-2.81;62.45;97581.28;5067284;28;20551;-66
2023/02/06 07:41:03;;;;;;;7.47;4.37;;;;;;;-2.17;62.60;97573.25;5072392;28;20002;-66
2023/02/06 07:43:29;;;;;;;8.00;4.18;;;;;;;-3.05;58.52;97581.06;5070552;28;20298;-65
2023/02/06 07:45:58;;;;;;;9.38;4.20;;;;;;;-3.20;59.19;97573.69;5070672;28;20229;-66
2023/02/06 07:48:23;;;;;;;10.80;4.97;;;;;;;-3.36;66.25;97574.13;5068453;28;20146;-66
2023/02/06 07:50:49;;;;;;;14.00;5.13;;;;;;;-4.26;63.18;97579.88;5064107;28;20051;-66
2023/02/06 07:53:14;;;;;;;10.40;4.70;;;;;;;-2.99;64.51;97574.00;5064168;28;20477;-66
2023/02/06 07:55:40;;;;;;;9.02;4.88;;;;;;;-3.09;65.83;97584.66;5066337;28;20040;-65
2023/02/06 07:58:05;;;;;;;14.18;5.00;;;;;;;-3.64;64.67;97577.47;5073447;28;20036;-65
2023/02/06 08:00:31;;;;;;;9.32;5.60;;;;;;;-1.70;67.32;97572.56;5073132;28;20043;-66
2023/02/06 08:02:56;;;;;;;8.52;5.43;;;;;;;-1.03;65.63;97578.06;5068817;28;20028;-65
2023/02/06 08:05:21;;;;;;;10.90;5.78;;;;;;;-0.78;63.23;97581.56;5072993;28;20298;-65
2023/02/06 08:07:47;;;;;;;11.82;6.82;;;;;;;-0.25;62.05;97579.50;5068961;28;20028;-66
2023/02/06 08:10:12;;;;;;;12.18;6.15;;;;;;;-0.22;62.68;97580.25;5066277;28;20040;-65
2023/02/06 08:12:38;;;;;;;12.35;5.68;;;;;;;-2.15;63.28;97587.09;5065804;28;20032;-66
2023/02/06 08:15:03;;;;;;;12.85;6.65;;;;;;;-1.08;65.37;97590.47;5069400;28;20529;-66
2023/02/06 08:17:29;;;;;;;12.05;4.95;;;;;;;-0.66;54.55;97580.22;5073662;28;20197;-66
2023/02/06 08:19:54;;;;;;;12.43;5.88;;;;;;;-0.23;56.83;97575.91;5068743;28;20027;-66
2023/02/06 08:22:19;;;;;;;10.73;5.07;;;;;;;-0.95;58.79;97577.78;5070153;28;20040;-66
2023/02/06 08:24:45;;;;;;;11.77;5.35;;;;;;;-0.63;55.88;97574.88;5072650;28;20085;-66
2023/02/06 08:27:11;;;;;;;10.85;4.43;;;;;;;-0.52;58.31;97577.06;5068554;28;20032;-66
2023/02/06 08:29:41;;;;;;;8.60;4.78;;;;;;;-2.18;56.78;97580.22;5067678;28;20044;-66
2023/02/06 08:32:09;;;;;;;10.95;4.80;;;;;;;-2.10;59.76;97572.16;5066038;28;20041;-66
2023/02/06 08:34:35;;;;;;;9.27;5.20;;;;;;;-2.12;64.76;97576.56;5068459;28;20335;-65
2023/02/06 08:37:00;;;;;;;11.82;5.10;;;;;;;-2.30;58.52;97591.06;5074277;28;20051;-65
2023/02/06 08:39:25;;;;;;;12.05;5.63;;;;;;;-2.43;61.84;97577.53;5065045;28;20020;-66
2023/02/06 08:41:51;;;;;;;11.25;5.25;;;;;;;-2.22;58.50;97578.63;5069422;28;20493;-66
2023/02/06 08:44:16;;;;;;;12.10;5.80;;;;;;;-0.86;61.79;97571.38;5065893;28;20133;-66
2023/02/06 08:46:43;;;;;;;5.75;3.38;;;;;;;-0.58;60.22;97565.06;5067621;28;20021;-66
2023/02/06 08:49:19;;;;;;;9.63;4.60;;;;;;;-0.02;58.71;97575.13;5068811;28;20040;-66
2023/02/06 08:51:44;;;;;;;9.85;4.55;;;;;;;-1.54;57.48;97577.25;5064157;28;20032;-66
2023/02/06 08:54:11;;;;;;;13.00;5.40;;;;;;;-0.89;60.12;97568.88;5072691;28;20508;-65
2023/02/06 08:56:37;;;;;;;11.85;5.57;;;;;;;-1.57;61.48;97573.00;5068669;28;20043;-65
2023/02/06 08:59:02;;;;;;;11.82;5.47;;;;;;;-1.91;59.49;97574.13;5071308;28;20466;-66
2023/02/06 09:01:29;;;;;;;14.18;6.45;;;;;;;-1.14;65.15;97569.75;5073336;28;20043;-66
2023/02/06 09:03:56;;;;;;;12.00;6.82;;;;;;;-0.28;62.38;97570.03;5070718;28;20035;-66
2023/02/06 09:06:21;;;;;;;10.88;4.60;;;;;;;-1.23;54.28;97579.66;5064066;28;20099;-66
2023/02/06 09:08:47;;;;;;;14.32;4.72;;;;;;;-0.94;59.94;97584.75;5064751;28;20440;-66
2023/02/06 09:11:17;;;;;;;16.77;10.43;;;;;;;0.52;59.21;97580.75;5068682;28;20086;-66
2023/02/06 09:13:43;;;;;;;12.10;6.85;;;;;;;0.31;57.33;97577.25;5067748;28;20516;-66
2023/02/06 09:16:09;;;;;;;11.45;5.90;;;;;;;0.46;51.87;97570.50;5066443;28;20121;-66
2023/02/06 09:18:34;;;;;;;14.02;5.13;;;;;;;-0.71;56.15;97575.19;5068795;28;20035;-66
2023/02/06 09:21:11;;;;;;;13.05;5.97;;;;;;;-0.87;60.75;97582.75;5068776;28;21864;-66
2023/02/06 09:23:42;;;;;;;12.45;6.68;;;;;;;-1.73;58.06;97573.53;5070456;28;20513;-66
2023/02/06 09:26:09;;;;;;;14.27;7.43;;;;;;;-1.06;56.90;97575.56;5067710;28;20080;-66
2023/02/06 09:28:34;;;;;;;8.05;4.45;;;;;;;-1.35;55.10;97567.84;5066711;28;20581;-66
2023/02/06 09:31:00;;;;;;;8.88;4.82;;;;;;;-0.54;58.88;97569.28;5065726;28;20064;-66
2023/02/06 09:33:26;;;;;;;12.98;7.18;;;;;;;0.57;57.42;97573.50;5062917;28;20073;-66
2023/02/06 09:36:08;;;;;;;11.25;5.85;;;;;;;0.54;50.36;97573.63;5069585;28;20046;-66
2023/02/06 09:38:34;;;;;;;15.05;6.13;;;;;;;1.45;49.45;97569.63;5069109;28;20627;-67
2023/02/06 09:41:01;;;;;;;10.13;3.90;;;;;;;1.47;49.41;97571.25;5062297;28;20141;-66
2023/02/06 09:43:28;;;;;;;12.10;5.25;;;;;;;1.23;48.61;97562.75;5051235;28;20108;-67
2023/02/06 09:45:59;;;;;;;10.40;3.53;;;;;;;0.73;50.30;97564.97;5065778;28;20497;-66
2023/02/06 09:48:26;;;;;;;9.00;4.15;;;;;;;1.45;48.79;97554.72;5061289;28;20697;-66
2023/02/06 09:51:30;;;;;;;10.38;5.60;;;;;;;1.57;50.61;97549.84;5071101;28;20052;-66
2023/02/06 09:54:34;;;;;;;8.43;5.15;;;;;;;1.25;50.27;97553.03;5065221;28;20108;-66
2023/02/06 09:57:09;;;;;;;9.13;4.13;;;;;;;0.30;49.58;97550.19;5006366;28;20090;-66
2023/02/06 09:59:43;;;;;;;13.90;6.80;;;;;;;1.93;51.72;97542.84;4993047;28;20537;-66
2023/02/06 10:02:24;;;;;;;10.45;5.35;;;;;;;2.67;53.57;97530.38;5038093;28;20288;-66
2023/02/06 10:05:27;;;;;;;12.73;7.18;;;;;;;1.53;52.95;97546.50;5068836;28;20429;-66
2023/02/06 10:08:33;;;;;;;6.45;3.67;;;;;;;1.16;50.27;97548.22;5065690;28;20127;-66
2023/02/06 10:11:00;;;;;;;4.95;2.20;;;;;;;0.66;50.60;97542.56;5067595;28;20432;-66
2023/02/06 10:13:53;;;;;;;4.60;2.53;;;;;;;0.64;50.90;97536.53;5048889;28;20089;-66
2023/02/06 10:16:31;;;;;;;9.95;5.10;;;;;;;0.44;52.59;97528.63;5065187;28;20171;-66
2023/02/06 10:19:00;;;;;;;15.68;7.90;;;;;;;1.11;53.32;97535.31;5069406;28;20249;-66
2023/02/06 10:21:40;;;;;;;8.75;4.47;;;;;;;1.40;52.74;97532.25;5049973;28;20090;-66
2023/02/06 10:24:09;;;;;;;9.50;3.65;;;;;;;0.89;54.78;97533.66;5063020;28;20556;-66
2023/02/06 10:26:36;;;;;;;10.65;4.97;;;;;;;1.96;48.37;97522.56;5063271;28;20068;-66
2023/02/06 10:29:02;;;;;;;17.27;9.05;;;;;;;2.49;51.76;97517.25;5067481;28;20147;-66
2023/02/06 10:31:36;;;;;;;20.55;12.35;;;;;;;3.16;51.50;97510.22;5047072;28;20062;-66
2023/02/06 10:34:16;;;;;;;7.53;3.10;;;;;;;3.09;47.65;97509.72;5067671;28;20074;-66
2023/02/06 10:36:49;;;;;;;11.77;4.53;;;;;;;3.74;48.35;97505.28;5063047;28;20357;-66
2023/02/06 10:39:45;;;;;;;11.52;3.92;;;;;;;2.59;43.82;97499.22;5067944;28;20128;-66
2023/02/06 10:42:41;;;;;;;4.90;1.92;;;;;;;2.56;46.63;97493.28;5068054;28;20077;-66
2023/02/06 10:45:28;;;;;;;8.82;5.00;;;;;;;2.05;47.82;97488.88;5062107;28;20387;-66
2023/02/06 10:48:09;;;;;;;20.38;9.23;;;;;;;2.14;49.18;97488.38;5067428;28;20163;-65
2023/02/06 10:50:40;;;;;;;6.32;2.58;;;;;;;2.27;46.16;97478.09;5067381;28;20066;-65
2023/02/06 10:53:22;;;;;;;6.65;3.13;;;;;;;2.29;47.46;97480.66;5065453;28;20152;-66
2023/02/06 10:55:54;;;;;;;15.38;8.57;;;;;;;3.13;47.16;97484.09;5064065;28;20345;-66
2023/02/06 10:58:40;;;;;;;5.25;2.78;;;;;;;2.95;47.72;97478.91;5048602;28;20595;-66
2023/02/06 11:01:06;;;;;;;11.70;6.65;;;;;;;3.24;46.63;97479.09;5064965;28;20074;-66
2023/02/06 11:03:31;;;;;;;5.47;2.80;;;;;;;3.40;44.26;97484.34;5045701;28;20054;-65
2023/02/06 11:05:57;;;;;;;18.75;10.68;;;;;;;3.32;48.59;97476.03;5046388;28;20705;-65
2023/02/06 11:08:28;;;;;;;18.95;10.25;;;;;;;3.52;47.04;97481.97;5070982;28;20081;-66
2023/02/06 11:10:54;;;;;;;14.90;7.60;;;;;;;2.88;48.23;97480.16;5070698;28;20060;-66
2023/02/06 11:13:23;;;;;;;15.65;7.00;;;;;;;3.22;44.27;97478.31;5065139;28;20296;-66
2023/02/06 11:16:04;;;;;;;7.15;3.45;;;;;;;2.91;44.60;97480.00;5069594;28;20048;-66
2023/02/06 11:18:41;;;;;;;11.45;4.97;;;;;;;2.22;44.32;97474.88;5070387;28;20086;-66
2023/02/06 11:21:07;;;;;;;12.02;6.43;;;;;;;1.79;49.33;97468.22;5073438;28;20504;-66
2023/02/06 11:23:35;;;;;;;10.00;4.82;;;;;;;2.22;47.16;97466.97;5070224;28;20056;-66
2023/02/06 11:26:12;;;;;;;14.65;8.52;;;;;;;2.35;49.10;97464.56;5074093;28;20091;-66
2023/02/06 11:29:00;;;;;;;25.25;14.95;;;;;;;2.42;47.23;97467.72;5077149;28;20566;-66
2023/02/06 11:31:44;;;;;;;8.32;3.90;;;;;;;2.29;48.44;97470.13;5068091;28;20602;-66
2023/02/06 11:34:30;;;;;;;9.45;4.50;;;;;;;2.59;47.49;97466.81;5073244;28;20515;-66
2023/02/06 11:36:57;;;;;;;5.80;3.03;;;;;;;1.78;47.71;97471.78;5069129;28;20326;-65
2023/02/06 11:39:23;;;;;;;15.27;7.82;;;;;;;1.95;49.15;97463.06;5068330;28;20093;-66